Time;durP1;ratioP1;P1;durP2;ratioP2;P2;SDS_P1;SDS_P2;PMS_P1;PMS_P2;Temp;Humidity;BMP_temperature;BMP_pressure;BME280_temperature;BME280_humidity;BME280_pressure;Samples;Min_cycle;Max_cycle;Signal;HPM_P1;HPM_P2
2021/08/10 00:01:56;;;;;;;3.80;2.47;;;15.60;99.90;;;;;;5001737;28;20211;-78
2021/08/10 00:04:22;;;;;;;4.93;2.67;;;15.60;99.90;;;;;;5002118;28;20198;-78
2021/08/10 00:06:48;;;;;;;6.30;2.50;;;15.60;99.90;;;;;;5001737;28;20266;-78
2021/08/10 00:09:13;;;;;;;4.07;2.30;;;15.60;99.90;;;;;;5001226;28;20281;-78
2021/08/10 00:11:39;;;;;;;4.10;2.33;;;15.60;99.90;;;;;;5017486;28;20217;-78
2021/08/10 00:14:04;;;;;;;4.47;2.50;;;15.70;99.90;;;;;;5001512;28;20179;-78
2021/08/10 00:16:30;;;;;;;4.10;2.50;;;15.60;99.90;;;;;;5000491;28;20259;-78
2021/08/10 00:18:55;;;;;;;4.30;2.60;;;15.60;99.90;;;;;;5001424;28;20635;-78
2021/08/10 00:21:21;;;;;;;4.27;2.33;;;15.60;99.90;;;;;;5000486;28;20261;-78
2021/08/10 00:23:47;;;;;;;4.20;2.23;;;15.60;99.90;;;;;;5001110;28;20389;-78
2021/08/10 00:26:13;;;;;;;4.37;2.60;;;15.60;99.90;;;;;;5001085;28;20211;-78
2021/08/10 00:28:39;;;;;;;4.63;2.40;;;15.50;99.90;;;;;;5000677;28;20168;-78
2021/08/10 00:31:04;;;;;;;3.90;2.53;;;15.50;99.90;;;;;;5000468;28;20685;-78
2021/08/10 00:33:30;;;;;;;3.90;2.53;;;15.50;99.90;;;;;;5017157;28;20179;-78
2021/08/10 00:35:55;;;;;;;4.27;2.60;;;15.50;99.90;;;;;;5000151;28;20182;-77
2021/08/10 00:38:21;;;;;;;7.13;2.73;;;15.50;99.90;;;;;;5016349;28;20191;-78
2021/08/10 00:40:46;;;;;;;5.17;2.77;;;15.40;99.90;;;;;;5000477;28;20257;-78
2021/08/10 00:43:34;;;;;;;4.80;2.50;;;15.40;99.90;;;;;;5001862;28;20258;-78
2021/08/10 00:46:01;;;;;;;3.40;2.63;;;15.40;99.90;;;;;;5016733;28;20226;-78
2021/08/10 00:48:26;;;;;;;4.63;2.33;;;15.30;99.90;;;;;;5000791;28;20179;-79
2021/08/10 00:50:52;;;;;;;5.30;2.47;;;15.30;99.90;;;;;;5000236;28;20233;-78
2021/08/10 00:53:18;;;;;;;2.87;2.23;;;15.30;99.90;;;;;;5001376;28;20191;-78
2021/08/10 00:55:43;;;;;;;3.43;2.30;;;15.30;99.90;;;;;;5000518;28;20179;-78
2021/08/10 00:58:09;;;;;;;3.83;2.37;;;15.30;99.90;;;;;;5000570;28;20183;-78
2021/08/10 01:00:34;;;;;;;4.90;2.43;;;15.20;99.90;;;;;;5000211;28;20207;-78
2021/08/10 01:03:00;;;;;;;4.33;2.70;;;15.20;99.90;;;;;;5001085;28;20190;-78
2021/08/10 01:05:27;;;;;;;4.87;2.53;;;15.20;99.90;;;;;;4999836;28;20210;-78
2021/08/10 01:08:04;;;;;;;4.37;2.13;;;15.10;99.90;;;;;;5000163;28;20186;-78
2021/08/10 01:10:51;;;;;;;5.93;2.80;;;15.10;99.90;;;;;;5000776;28;20223;-78
2021/08/10 01:13:18;;;;;;;4.10;2.40;;;15.10;99.90;;;;;;5002937;28;20191;-78
2021/08/10 01:15:57;;;;;;;7.53;2.90;;;15.10;99.90;;;;;;5016713;28;20229;-78
2021/08/10 01:18:27;;;;;;;4.73;2.37;;;15.00;99.90;;;;;;5001545;28;20194;-78
2021/08/10 01:21:09;;;;;;;4.27;2.27;;;15.00;99.90;;;;;;5000701;28;20203;-78
2021/08/10 01:23:35;;;;;;;3.87;2.50;;;15.00;99.90;;;;;;5017571;28;20188;-78
2021/08/10 01:26:07;;;;;;;4.63;2.30;;;15.00;99.90;;;;;;5000649;28;20214;-78
2021/08/10 01:28:50;;;;;;;4.67;2.73;;;15.00;99.90;;;;;;5017430;28;20164;-78
2021/08/10 01:31:19;;;;;;;3.83;2.70;;;15.00;99.90;;;;;;5019465;28;20227;-78
2021/08/10 01:33:46;;;;;;;6.43;2.80;;;15.00;99.90;;;;;;5033819;28;20183;-78
2021/08/10 01:36:12;;;;;;;4.70;2.60;;;15.00;99.90;;;;;;5001092;28;20211;-78
2021/08/10 01:38:38;;;;;;;3.63;2.50;;;14.90;99.90;;;;;;5000621;28;20190;-78
2021/08/10 01:41:03;;;;;;;4.53;2.53;;;14.90;99.90;;;;;;5001175;28;20208;-78
2021/08/10 01:43:29;;;;;;;4.43;2.60;;;14.80;99.90;;;;;;5000629;28;20179;-78
2021/08/10 01:45:55;;;;;;;4.73;2.77;;;14.90;99.90;;;;;;5000168;28;20270;-78
2021/08/10 01:48:20;;;;;;;4.77;3.00;;;14.80;99.90;;;;;;5000920;28;20176;-79
2021/08/10 01:50:46;;;;;;;5.40;2.57;;;14.80;99.90;;;;;;5000840;28;20191;-79
2021/08/10 01:53:12;;;;;;;5.37;3.00;;;14.80;99.90;;;;;;5001368;28;20175;-78
2021/08/10 01:55:38;;;;;;;4.57;2.90;;;14.70;99.90;;;;;;5001565;28;20183;-79
2021/08/10 01:58:04;;;;;;;4.33;2.67;;;14.80;99.90;;;;;;5000992;28;20183;-78
2021/08/10 02:00:31;;;;;;;5.97;2.90;;;14.70;99.90;;;;;;5000900;28;20261;-78
2021/08/10 02:02:57;;;;;;;4.60;2.30;;;14.70;99.90;;;;;;5002642;28;20206;-78
2021/08/10 02:05:23;;;;;;;5.90;2.90;;;14.60;99.90;;;;;;5004531;28;20219;-79
2021/08/10 02:07:48;;;;;;;5.00;2.80;;;14.60;99.90;;;;;;5003792;28;20183;-78
2021/08/10 02:10:14;;;;;;;5.17;2.70;;;14.60;99.90;;;;;;5003731;28;20196;-79
2021/08/10 02:12:40;;;;;;;6.07;3.00;;;14.60;99.90;;;;;;5004308;28;20607;-78
2021/08/10 02:15:06;;;;;;;5.93;3.30;;;14.50;99.90;;;;;;5004289;28;20554;-78
2021/08/10 02:17:32;;;;;;;4.57;2.70;;;14.50;99.90;;;;;;5003920;28;20184;-78
2021/08/10 02:19:57;;;;;;;4.53;2.90;;;14.50;99.90;;;;;;5020114;28;20187;-79
2021/08/10 02:22:23;;;;;;;5.57;2.97;;;14.60;99.90;;;;;;5003135;28;20290;-78
2021/08/10 02:25:01;;;;;;;5.47;3.13;;;14.50;99.90;;;;;;5003228;28;20253;-78
2021/08/10 02:27:45;;;;;;;5.50;3.07;;;14.50;99.90;;;;;;5005093;28;20168;-78
2021/08/10 02:30:12;;;;;;;5.27;2.80;;;14.50;99.90;;;;;;5004600;28;20271;-78
2021/08/10 02:32:38;;;;;;;4.30;2.93;;;14.50;99.90;;;;;;5004427;28;20188;-78
2021/08/10 02:35:04;;;;;;;5.37;2.97;;;14.50;99.90;;;;;;5003419;28;20191;-78
2021/08/10 02:37:30;;;;;;;8.53;3.47;;;14.60;99.90;;;;;;5003910;28;20195;-78
2021/08/10 02:39:55;;;;;;;5.23;3.27;;;14.70;99.90;;;;;;5003410;28;20175;-79
2021/08/10 02:42:23;;;;;;;5.47;3.30;;;14.70;99.90;;;;;;5003401;28;20199;-78
2021/08/10 02:44:48;;;;;;;6.27;3.33;;;14.60;99.90;;;;;;5003023;28;20215;-78
2021/08/10 02:47:14;;;;;;;6.40;4.00;;;14.60;99.90;;;;;;5003706;28;20205;-78
2021/08/10 02:49:40;;;;;;;8.77;3.57;;;14.60;99.90;;;;;;5003182;28;20719;-78
2021/08/10 02:52:06;;;;;;;7.00;3.53;;;14.60;99.90;;;;;;5003656;28;20207;-78
2021/08/10 02:54:36;;;;;;;6.10;3.90;;;14.70;99.90;;;;;;5003732;28;20182;-78
2021/08/10 02:57:30;;;;;;;6.03;3.83;;;14.70;99.90;;;;;;5002759;28;20558;-78
2021/08/10 03:00:01;;;;;;;7.63;3.93;;;14.70;99.90;;;;;;5005388;28;20183;-78
2021/08/10 03:02:30;;;;;;;6.73;3.90;;;14.80;99.90;;;;;;5019280;28;20191;-78
2021/08/10 03:05:16;;;;;;;5.90;3.87;;;14.80;99.90;;;;;;5002783;28;20219;-78
2021/08/10 03:07:49;;;;;;;5.93;3.50;;;14.90;99.90;;;;;;5017954;28;20179;-79
2021/08/10 03:10:15;;;;;;;7.50;3.73;;;14.90;99.90;;;;;;5002449;28;20196;-79
2021/08/10 03:12:42;;;;;;;6.23;3.50;;;14.90;99.90;;;;;;5002249;28;20263;-78
2021/08/10 03:15:08;;;;;;;6.57;3.40;;;14.90;99.90;;;;;;5001792;28;20187;-79
2021/08/10 03:17:36;;;;;;;6.73;3.30;;;14.90;99.90;;;;;;5001500;28;20663;-79
2021/08/10 03:20:03;;;;;;;6.80;3.40;;;15.00;99.90;;;;;;5001268;28;20183;-78
2021/08/10 03:22:29;;;;;;;5.77;3.17;;;15.00;99.90;;;;;;5001565;28;20186;-78
2021/08/10 03:24:54;;;;;;;5.67;3.20;;;15.00;99.90;;;;;;5002085;28;20211;-78
2021/08/10 03:27:22;;;;;;;6.23;3.57;;;15.00;99.90;;;;;;5002105;28;20179;-78
2021/08/10 03:29:47;;;;;;;5.30;3.40;;;15.00;99.90;;;;;;5002281;28;20232;-78
2021/08/10 03:32:13;;;;;;;4.80;3.20;;;15.00;99.90;;;;;;5001805;28;20290;-79
2021/08/10 03:34:39;;;;;;;6.47;2.93;;;15.00;99.90;;;;;;5002143;28;20180;-78
2021/08/10 03:37:04;;;;;;;5.80;3.40;;;15.00;99.90;;;;;;5002683;28;20175;-79
2021/08/10 03:39:30;;;;;;;4.53;3.07;;;15.00;99.90;;;;;;5002026;28;20620;-78
2021/08/10 03:41:56;;;;;;;6.67;3.57;;;15.00;99.90;;;;;;5002199;28;20286;-78
2021/08/10 03:44:21;;;;;;;5.30;3.03;;;15.00;99.90;;;;;;5001781;28;20258;-77
2021/08/10 03:46:48;;;;;;;6.93;3.10;;;15.10;99.90;;;;;;5001673;28;20231;-77
2021/08/10 03:49:18;;;;;;;6.83;2.43;;;15.10;99.90;;;;;;5001412;28;20172;-77
2021/08/10 03:51:44;;;;;;;4.80;2.83;;;15.10;99.90;;;;;;4977569;28;20197;-77
2021/08/10 03:54:09;;;;;;;5.60;2.77;;;15.10;99.90;;;;;;4975074;28;20199;-77
2021/08/10 03:56:35;;;;;;;4.13;2.60;;;15.30;99.90;;;;;;4987172;28;20663;-77
2021/08/10 03:59:01;;;;;;;6.13;3.03;;;15.20;99.90;;;;;;4994269;28;20203;-77
2021/08/10 04:01:26;;;;;;;5.87;2.83;;;15.20;99.90;;;;;;4995089;28;20684;-78
2021/08/10 04:03:53;;;;;;;5.03;2.83;;;15.20;99.90;;;;;;4991190;28;20653;-78
2021/08/10 04:06:18;;;;;;;7.03;3.23;;;15.30;99.90;;;;;;4987958;28;20215;-78
2021/08/10 04:08:44;;;;;;;4.80;2.70;;;15.20;99.90;;;;;;4993232;28;20176;-78
2021/08/10 04:11:10;;;;;;;8.93;3.27;;;15.20;99.90;;;;;;4976951;28;20212;-78
2021/08/10 04:13:35;;;;;;;7.70;2.93;;;15.30;99.90;;;;;;4993508;28;20724;-77
2021/08/10 04:16:02;;;;;;;4.27;3.03;;;15.20;99.90;;;;;;4993458;28;20177;-77
2021/08/10 04:18:28;;;;;;;3.60;2.43;;;15.20;99.90;;;;;;4977226;28;20223;-78
2021/08/10 04:20:54;;;;;;;3.93;2.80;;;15.30;99.90;;;;;;4976557;28;20212;-77
2021/08/10 04:23:20;;;;;;;7.70;2.70;;;15.30;99.90;;;;;;4993562;28;20179;-77
2021/08/10 04:25:45;;;;;;;6.17;2.90;;;15.30;99.90;;;;;;4993036;28;20586;-77
2021/08/10 04:28:11;;;;;;;6.50;2.57;;;15.40;99.90;;;;;;4992736;28;20176;-77
2021/08/10 04:30:37;;;;;;;6.60;3.00;;;15.40;99.90;;;;;;4976635;28;20203;-78
2021/08/10 04:33:04;;;;;;;5.63;2.90;;;15.50;99.90;;;;;;4966867;28;20181;-79
2021/08/10 04:35:30;;;;;;;6.73;2.87;;;15.50;99.90;;;;;;4973940;28;20179;-76
2021/08/10 04:37:55;;;;;;;4.97;2.90;;;15.60;99.90;;;;;;4973309;28;20562;-76
2021/08/10 04:40:21;;;;;;;5.67;2.83;;;15.60;99.90;;;;;;4972452;28;20679;-76
2021/08/10 04:42:47;;;;;;;5.43;3.10;;;15.60;99.90;;;;;;4972768;28;20257;-77
2021/08/10 04:45:12;;;;;;;9.33;3.00;;;15.60;99.90;;;;;;4972825;28;20199;-75
2021/08/10 04:47:38;;;;;;;5.17;2.70;;;15.70;99.90;;;;;;4973506;28;20185;-74
2021/08/10 04:50:04;;;;;;;6.87;3.10;;;15.60;99.90;;;;;;4974357;28;20188;-77
2021/08/10 04:52:29;;;;;;;7.60;3.00;;;15.60;99.90;;;;;;4974218;28;20236;-77
2021/08/10 04:54:57;;;;;;;5.53;2.93;;;15.60;99.90;;;;;;4975542;28;20696;-78
2021/08/10 04:57:23;;;;;;;6.10;3.20;;;15.60;99.90;;;;;;4973774;28;20185;-78
2021/08/10 04:59:50;;;;;;;5.67;3.23;;;15.50;99.90;;;;;;4972463;28;20177;-78
2021/08/10 05:02:17;;;;;;;7.20;3.07;;;15.50;99.90;;;;;;4987010;28;20648;-78
2021/08/10 05:04:43;;;;;;;4.60;3.10;;;15.50;99.90;;;;;;4976531;28;20172;-78
2021/08/10 05:07:09;;;;;;;9.93;3.20;;;15.50;99.90;;;;;;4989016;28;20195;-78
2021/08/10 05:09:34;;;;;;;5.70;3.27;;;15.40;99.90;;;;;;4995971;28;20176;-76
2021/08/10 05:12:00;;;;;;;5.80;3.07;;;15.50;99.90;;;;;;5008543;28;20203;-76
2021/08/10 05:14:25;;;;;;;6.80;3.30;;;15.50;99.90;;;;;;5009455;28;20176;-76
2021/08/10 05:16:51;;;;;;;4.77;3.00;;;15.50;99.90;;;;;;4992457;28;20315;-76
2021/08/10 05:19:17;;;;;;;5.20;3.57;;;15.50;99.90;;;;;;4991751;28;20259;-76
2021/08/10 05:21:43;;;;;;;5.67;3.53;;;15.50;99.90;;;;;;4983438;28;20571;-76
2021/08/10 05:24:08;;;;;;;5.53;3.50;;;15.40;99.90;;;;;;4992046;28;20188;-76
2021/08/10 05:26:34;;;;;;;6.00;3.50;;;15.40;99.90;;;;;;4991295;28;20303;-76
2021/08/10 05:28:59;;;;;;;4.57;3.00;;;15.50;99.90;;;;;;5007632;28;20553;-76
2021/08/10 05:31:25;;;;;;;7.80;3.97;;;15.40;99.90;;;;;;5007810;28;20601;-75
2021/08/10 05:33:51;;;;;;;6.10;3.70;;;15.40;99.90;;;;;;4991160;28;20181;-76
2021/08/10 05:36:19;;;;;;;7.90;3.70;;;15.40;99.90;;;;;;5007468;28;20184;-76
2021/08/10 05:38:48;;;;;;;6.33;3.67;;;15.40;99.90;;;;;;4993473;28;20231;-76
2021/08/10 05:41:13;;;;;;;7.80;3.80;;;15.30;99.90;;;;;;5010622;28;20203;-76
2021/08/10 05:43:39;;;;;;;9.50;4.00;;;15.40;99.90;;;;;;4995792;28;20192;-76
2021/08/10 05:46:05;;;;;;;5.80;3.37;;;15.40;99.90;;;;;;4995100;28;20215;-76
2021/08/10 05:48:30;;;;;;;8.93;3.90;;;15.50;99.90;;;;;;4995078;28;20561;-76
2021/08/10 05:50:56;;;;;;;7.97;4.33;;;15.70;99.90;;;;;;5011183;28;20200;-76
2021/08/10 05:53:22;;;;;;;6.80;3.73;;;15.80;99.90;;;;;;4995157;28;20555;-76
2021/08/10 05:55:47;;;;;;;6.03;3.70;;;16.00;99.90;;;;;;4994999;28;20191;-76
2021/08/10 05:58:13;;;;;;;5.60;3.60;;;16.30;99.90;;;;;;4995155;28;20195;-76
2021/08/10 06:00:38;;;;;;;8.23;3.87;;;16.80;99.90;;;;;;4994473;28;20196;-76
2021/08/10 06:03:04;;;;;;;5.93;3.50;;;17.40;99.90;;;;;;4994660;28;20670;-76
2021/08/10 06:05:29;;;;;;;7.90;3.93;;;18.10;99.90;;;;;;4994742;28;20679;-78
2021/08/10 06:07:55;;;;;;;7.73;3.80;;;18.50;99.90;;;;;;4995565;28;20181;-75
2021/08/10 06:10:21;;;;;;;5.27;3.60;;;18.40;99.90;;;;;;4996793;28;20188;-75
2021/08/10 06:12:46;;;;;;;5.73;3.80;;;18.30;99.90;;;;;;4997871;28;20200;-81
2021/08/10 06:15:12;;;;;;;9.63;3.93;;;18.10;99.90;;;;;;5000701;28;20184;-82
2021/08/10 06:17:37;;;;;;;7.07;4.23;;;18.00;99.90;;;;;;5004555;28;20192;-81
2021/08/10 06:20:04;;;;;;;8.50;4.57;;;17.70;99.90;;;;;;4999751;28;20649;-79
2021/08/10 06:22:29;;;;;;;8.13;5.00;;;17.50;99.90;;;;;;4998743;28;20191;-79
2021/08/10 06:24:55;;;;;;;9.80;4.80;;;17.50;99.90;;;;;;5014532;28;20581;-79
2021/08/10 06:27:22;;;;;;;7.87;4.60;;;17.80;99.90;;;;;;4989419;28;20188;-80
2021/08/10 06:29:48;;;;;;;8.60;4.60;;;17.90;99.90;;;;;;5001135;28;20184;-80
2021/08/10 06:32:13;;;;;;;8.50;4.57;;;18.30;99.90;;;;;;5000529;28;20207;-80
2021/08/10 06:34:39;;;;;;;8.60;4.77;;;18.80;99.90;;;;;;4984425;28;20180;-80
2021/08/10 06:37:05;;;;;;;8.40;4.90;;;19.20;99.90;;;;;;4990316;28;20176;-80
2021/08/10 06:39:30;;;;;;;9.10;4.37;;;19.10;99.90;;;;;;4995925;28;20168;-80
2021/08/10 06:41:56;;;;;;;10.03;5.03;;;19.00;99.90;;;;;;4996550;28;20841;-80
2021/08/10 06:44:21;;;;;;;7.13;4.17;;;19.00;99.90;;;;;;5005505;28;20179;-81
2021/08/10 06:46:47;;;;;;;7.23;4.00;;;18.90;99.90;;;;;;4987822;28;20196;-81
2021/08/10 06:49:12;;;;;;;7.07;4.60;;;19.00;99.90;;;;;;4980224;28;20188;-81
2021/08/10 06:51:38;;;;;;;8.23;4.40;;;19.40;99.90;;;;;;4980142;28;20358;-81
2021/08/10 06:54:03;;;;;;;7.67;4.27;;;19.70;99.90;;;;;;4980499;28;20192;-80
2021/08/10 06:56:29;;;;;;;8.00;4.17;;;20.10;99.90;;;;;;4989461;28;20725;-79
2021/08/10 06:58:54;;;;;;;7.67;4.27;;;20.40;99.90;;;;;;4982680;28;20679;-76
2021/08/10 07:01:20;;;;;;;6.30;4.00;;;20.40;99.90;;;;;;4976104;28;20655;-74
2021/08/10 07:03:46;;;;;;;6.57;4.10;;;20.40;99.90;;;;;;4975845;28;20545;-76
2021/08/10 07:06:11;;;;;;;6.93;3.83;;;20.50;99.90;;;;;;4976502;28;20208;-78
2021/08/10 07:08:37;;;;;;;6.33;3.83;;;20.50;99.90;;;;;;5006845;28;20237;-74
2021/08/10 07:11:03;;;;;;;6.70;3.63;;;20.40;99.90;;;;;;5009728;28;20203;-76
2021/08/10 07:13:28;;;;;;;7.50;4.03;;;20.10;99.90;;;;;;4993338;28;20172;-76
2021/08/10 07:15:54;;;;;;;7.33;4.00;;;20.00;99.90;;;;;;5005540;28;20188;-76
2021/08/10 07:18:19;;;;;;;6.73;3.50;;;20.50;99.90;;;;;;4984003;28;20185;-77
2021/08/10 07:20:45;;;;;;;7.00;3.47;;;20.60;99.90;;;;;;4992782;28;20207;-77
2021/08/10 07:23:10;;;;;;;6.50;3.90;;;20.60;99.90;;;;;;5010534;28;20187;-77
2021/08/10 07:25:36;;;;;;;7.50;3.70;;;21.30;99.90;;;;;;4993165;28;20200;-76
2021/08/10 07:28:02;;;;;;;6.47;3.80;;;22.20;99.90;;;;;;4994355;28;20266;-77
2021/08/10 07:30:27;;;;;;;5.47;3.73;;;22.40;99.90;;;;;;5008186;28;20203;-77
2021/08/10 07:32:53;;;;;;;6.47;4.07;;;22.30;99.90;;;;;;5020625;28;20183;-77
2021/08/10 07:35:18;;;;;;;6.57;3.90;;;21.80;99.90;;;;;;4998057;28;20751;-77
2021/08/10 07:37:44;;;;;;;7.10;4.00;;;21.30;99.90;;;;;;5008612;28;20198;-77
2021/08/10 07:40:10;;;;;;;6.10;3.87;;;20.90;99.90;;;;;;4981407;28;20187;-77
2021/08/10 07:42:36;;;;;;;5.47;4.00;;;20.70;99.90;;;;;;4987309;28;20180;-77
2021/08/10 07:45:02;;;;;;;7.67;3.67;;;20.30;99.90;;;;;;4990618;28;20200;-77
2021/08/10 07:47:28;;;;;;;7.83;4.00;;;20.20;99.90;;;;;;5008784;28;20184;-77
2021/08/10 07:49:53;;;;;;;7.53;4.30;;;20.20;99.90;;;;;;4992521;28;20275;-77
2021/08/10 07:52:19;;;;;;;6.80;3.97;;;20.30;99.90;;;;;;5009025;28;20211;-77
2021/08/10 07:54:45;;;;;;;7.00;3.90;;;20.40;99.90;;;;;;4992386;28;20176;-77
2021/08/10 07:57:10;;;;;;;7.67;4.17;;;20.40;99.90;;;;;;4992366;28;20199;-77
2021/08/10 07:59:36;;;;;;;6.70;4.00;;;20.20;99.90;;;;;;4992606;28;20180;-76
2021/08/10 08:02:01;;;;;;;8.37;4.53;;;20.10;99.90;;;;;;4992265;28;20192;-78
2021/08/10 08:04:27;;;;;;;5.40;3.90;;;20.10;99.90;;;;;;4994485;28;20660;-77
2021/08/10 08:06:52;;;;;;;7.03;3.77;;;19.90;99.90;;;;;;5008519;28;20206;-77
2021/08/10 08:09:18;;;;;;;6.57;3.63;;;20.10;99.90;;;;;;4995603;28;20180;-78
2021/08/10 08:11:43;;;;;;;5.77;3.47;;;20.60;99.90;;;;;;4957654;28;20304;-77
2021/08/10 08:14:09;;;;;;;6.77;3.60;;;21.20;99.90;;;;;;5005657;28;20185;-77
2021/08/10 08:16:35;;;;;;;6.60;3.60;;;21.40;99.90;;;;;;4996812;28;20650;-77
2021/08/10 08:19:00;;;;;;;8.27;3.67;;;21.40;99.90;;;;;;4964650;28;20191;-77
2021/08/10 08:21:26;;;;;;;5.63;3.30;;;21.50;99.90;;;;;;4994825;28;20204;-77
2021/08/10 08:23:51;;;;;;;7.30;3.53;;;21.50;99.90;;;;;;4991812;28;20183;-77
2021/08/10 08:26:23;;;;;;;8.47;3.33;;;21.20;99.90;;;;;;4991488;28;20195;-76
2021/08/10 08:28:48;;;;;;;6.40;3.37;;;21.30;99.90;;;;;;4990938;28;20263;-77
2021/08/10 08:31:14;;;;;;;4.37;3.00;;;21.50;99.90;;;;;;4991310;28;20695;-77
2021/08/10 08:33:39;;;;;;;6.43;3.53;;;21.80;99.90;;;;;;4990901;28;20251;-77
2021/08/10 08:36:05;;;;;;;4.93;2.93;;;22.00;99.90;;;;;;4991528;28;20663;-77
2021/08/10 08:38:30;;;;;;;8.27;3.30;;;22.10;99.90;;;;;;4993017;28;20208;-77
2021/08/10 08:40:56;;;;;;;5.63;3.10;;;22.20;99.90;;;;;;4989279;28;20258;-77
2021/08/10 08:43:22;;;;;;;5.30;3.60;;;22.40;99.90;;;;;;4991415;28;20184;-77
2021/08/10 08:45:48;;;;;;;5.90;3.90;;;22.50;99.90;;;;;;4991475;28;20719;-77
2021/08/10 08:48:14;;;;;;;5.30;3.33;;;22.20;99.90;;;;;;4993176;28;20192;-77
2021/08/10 08:50:41;;;;;;;5.70;3.50;;;22.00;99.90;;;;;;4992191;28;20208;-77
2021/08/10 08:53:07;;;;;;;6.70;3.73;;;21.90;99.90;;;;;;4992306;28;20514;-77
2021/08/10 08:55:32;;;;;;;5.37;3.60;;;21.80;99.90;;;;;;4992209;28;20187;-77
2021/08/10 08:57:59;;;;;;;5.83;3.57;;;21.60;99.90;;;;;;4998214;28;20191;-79
2021/08/10 09:00:25;;;;;;;7.27;3.70;;;21.40;99.90;;;;;;4996355;28;20191;-77
2021/08/10 09:02:50;;;;;;;6.40;3.90;;;21.20;99.90;;;;;;5012471;28;20183;-77
2021/08/10 09:05:16;;;;;;;5.60;4.03;;;21.00;99.90;;;;;;4995355;28;20202;-78
2021/08/10 09:07:42;;;;;;;6.30;3.60;;;21.00;99.90;;;;;;5011783;28;20269;-77
2021/08/10 09:10:12;;;;;;;5.87;3.63;;;21.00;99.90;;;;;;4994947;28;20192;-78
2021/08/10 09:12:41;;;;;;;6.57;3.80;;;21.00;99.90;;;;;;4995811;28;20214;-78
2021/08/10 09:15:07;;;;;;;6.10;3.50;;;21.10;99.90;;;;;;5015709;28;20269;-78
2021/08/10 09:17:33;;;;;;;6.60;3.37;;;21.00;99.90;;;;;;4999641;28;20225;-78
2021/08/10 09:20:02;;;;;;;7.33;3.73;;;20.90;99.90;;;;;;4999263;28;20191;-77
2021/08/10 09:22:32;;;;;;;6.97;3.60;;;20.90;99.90;;;;;;4999718;28;20246;-77
2021/08/10 09:25:00;;;;;;;5.83;3.60;;;20.80;99.90;;;;;;4981594;28;20656;-77
2021/08/10 09:27:32;;;;;;;7.87;3.60;;;20.70;99.90;;;;;;4987577;28;20709;-77
2021/08/10 09:29:58;;;;;;;6.50;3.70;;;20.60;99.90;;;;;;4989540;28;20177;-77
2021/08/10 09:32:23;;;;;;;5.13;3.30;;;20.80;99.90;;;;;;4981508;28;20196;-81
2021/08/10 09:35:09;;;;;;;6.17;3.63;;;21.00;99.90;;;;;;4978615;28;20173;-82
2021/08/10 09:37:35;;;;;;;6.77;3.70;;;21.20;99.90;;;;;;4978425;28;20158;-81
2021/08/10 09:40:00;;;;;;;5.70;3.70;;;21.40;99.90;;;;;;4977669;28;20181;-81
2021/08/10 09:42:26;;;;;;;6.70;3.80;;;21.50;99.90;;;;;;4992181;28;20637;-80
2021/08/10 09:44:59;;;;;;;5.73;3.40;;;21.60;99.90;;;;;;4997215;28;20168;-81
2021/08/10 09:47:35;;;;;;;6.33;3.57;;;21.70;99.90;;;;;;4997308;28;20168;-82
2021/08/10 09:50:01;;;;;;;5.37;3.50;;;21.80;99.90;;;;;;4992152;28;20939;-81
2021/08/10 09:52:32;;;;;;;5.83;3.60;;;22.00;99.90;;;;;;4992459;28;20192;-81
2021/08/10 09:55:12;;;;;;;5.37;3.60;;;22.10;99.90;;;;;;4983019;28;20207;-81
2021/08/10 09:57:40;;;;;;;6.37;4.13;;;22.20;99.90;;;;;;4989426;28;20713;-80
2021/08/10 10:00:07;;;;;;;6.07;3.80;;;22.20;99.90;;;;;;4991285;28;20208;-80
2021/08/10 10:02:32;;;;;;;7.90;3.60;;;22.30;99.90;;;;;;4983273;28;20179;-81
2021/08/10 10:04:58;;;;;;;8.60;4.00;;;22.50;99.90;;;;;;4977043;28;20181;-82
2021/08/10 10:07:24;;;;;;;4.93;4.03;;;22.60;99.90;;;;;;4995660;28;20177;-82
2021/08/10 10:09:49;;;;;;;6.90;3.73;;;22.60;99.90;;;;;;4982186;28;20181;-80
2021/08/10 10:12:16;;;;;;;5.17;3.90;;;22.40;99.90;;;;;;4999268;28;20208;-82
2021/08/10 10:14:41;;;;;;;6.07;3.80;;;22.10;99.90;;;;;;5008374;28;20183;-82
2021/08/10 10:17:09;;;;;;;6.10;3.40;;;22.00;99.90;;;;;;5009606;28;20179;-82
2021/08/10 10:19:38;;;;;;;6.93;3.93;;;21.80;99.90;;;;;;5008029;28;20196;-81
2021/08/10 10:22:06;;;;;;;6.17;3.87;;;21.90;99.90;;;;;;5024801;28;20223;-82
2021/08/10 10:24:37;;;;;;;5.83;4.00;;;21.90;99.90;;;;;;5005225;28;20175;-81
2021/08/10 10:27:05;;;;;;;5.17;3.70;;;21.90;99.90;;;;;;5006119;28;20217;-80
2021/08/10 10:29:30;;;;;;;8.67;4.50;;;21.90;99.90;;;;;;4974301;28;20555;-79
2021/08/10 10:31:56;;;;;;;7.27;4.37;;;22.10;99.90;;;;;;4981647;28;20205;-79
2021/08/10 10:34:21;;;;;;;5.13;3.73;;;22.20;99.90;;;;;;4981259;28;20181;-80
2021/08/10 10:36:48;;;;;;;5.50;3.70;;;22.20;99.90;;;;;;4980604;28;20216;-81
2021/08/10 10:39:15;;;;;;;6.67;3.93;;;22.60;99.90;;;;;;4980415;28;20219;-80
2021/08/10 10:41:41;;;;;;;4.93;3.73;;;22.60;99.90;;;;;;4982244;28;20556;-80
2021/08/10 10:44:07;;;;;;;6.07;4.33;;;22.70;99.90;;;;;;4998755;28;20207;-80
2021/08/10 10:46:37;;;;;;;7.90;4.03;;;22.80;99.90;;;;;;4998475;28;20734;-79
2021/08/10 10:49:04;;;;;;;5.37;3.80;;;22.60;99.90;;;;;;4998191;28;20275;-79
2021/08/10 10:51:35;;;;;;;6.20;4.13;;;22.50;99.90;;;;;;4998506;28;20200;-80
2021/08/10 10:54:26;;;;;;;7.30;4.43;;;22.60;99.90;;;;;;4998876;28;20165;-80
2021/08/10 10:56:58;;;;;;;6.83;4.87;;;22.70;99.90;;;;;;5000060;28;20172;-80
2021/08/10 10:59:37;;;;;;;7.77;4.50;;;22.80;99.90;;;;;;4999211;28;20179;-81
2021/08/10 11:02:29;;;;;;;7.83;4.77;;;22.90;99.90;;;;;;4999988;28;20215;-81
2021/08/10 11:05:17;;;;;;;6.87;4.80;;;22.90;99.90;;;;;;4998359;28;20184;-80
2021/08/10 11:07:43;;;;;;;6.77;4.73;;;22.80;99.90;;;;;;5003127;28;20173;-81
2021/08/10 11:10:34;;;;;;;6.33;4.77;;;22.90;99.90;;;;;;4985015;28;20203;-80
2021/08/10 11:13:00;;;;;;;5.33;4.53;;;23.00;99.90;;;;;;4995227;28;20173;-79
2021/08/10 11:15:49;;;;;;;6.10;4.77;;;22.90;99.90;;;;;;4979114;28;20188;-79
2021/08/10 11:18:15;;;;;;;5.57;4.80;;;22.70;99.90;;;;;;4983159;28;20278;-79
2021/08/10 11:20:44;;;;;;;7.03;4.90;;;22.60;99.90;;;;;;5033883;28;20207;-78
2021/08/10 11:23:22;;;;;;;6.37;4.80;;;22.50;99.90;;;;;;5017757;28;20176;-79
2021/08/10 11:25:51;;;;;;;7.13;4.70;;;22.30;99.90;;;;;;5032605;28;20218;-77
2021/08/10 11:28:32;;;;;;;7.23;5.00;;;22.30;99.90;;;;;;4998977;28;20204;-79
2021/08/10 11:30:59;;;;;;;5.87;4.90;;;22.50;99.90;;;;;;5015266;28;20196;-79
2021/08/10 11:33:34;;;;;;;7.07;4.43;;;22.70;99.90;;;;;;5000028;28;20180;-78
2021/08/10 11:36:12;;;;;;;6.53;4.47;;;22.90;99.90;;;;;;5015091;28;20238;-78
2021/08/10 11:38:43;;;;;;;5.53;4.43;;;23.10;99.90;;;;;;5015525;28;20180;-77
2021/08/10 11:41:09;;;;;;;8.40;4.20;;;23.00;99.90;;;;;;5000779;28;20204;-78
2021/08/10 11:43:37;;;;;;;7.13;4.33;;;23.00;99.90;;;;;;4996063;28;20183;-79
2021/08/10 11:46:04;;;;;;;6.15;4.40;;;23.10;99.90;;;;;;5012417;28;20203;-78
2021/08/10 11:48:46;;;;;;;4.33;3.93;;;23.20;99.90;;;;;;4978974;28;20180;-76
2021/08/10 11:51:38;;;;;;;6.43;3.90;;;23.20;99.90;;;;;;5011118;28;20200;-79
2021/08/10 11:54:19;;;;;;;5.30;3.77;;;23.10;99.90;;;;;;4998207;28;20668;-79
2021/08/10 11:56:46;;;;;;;10.87;4.53;;;23.00;99.90;;;;;;5015174;28;20181;-80
2021/08/10 11:59:19;;;;;;;6.22;4.03;;;23.00;99.90;;;;;;4997682;28;20182;-83
2021/08/10 12:01:45;;;;;;;5.70;3.57;;;22.80;99.90;;;;;;4997099;28;20559;-80
2021/08/10 12:04:24;;;;;;;5.60;3.30;;;22.60;99.90;;;;;;4996769;28;20188;-84
2021/08/10 12:06:51;;;;;;;6.70;3.60;;;22.50;99.90;;;;;;4996368;28;20853;-82
2021/08/10 12:09:22;;;;;;;4.63;3.70;;;22.40;99.90;;;;;;4996858;28;20179;-76
2021/08/10 12:11:51;;;;;;;5.67;4.00;;;22.30;99.90;;;;;;4975199;28;20291;-78
2021/08/10 12:14:28;;;;;;;6.23;3.80;;;22.30;99.90;;;;;;4973407;28;20668;-77
2021/08/10 12:17:04;;;;;;;5.20;3.83;;;22.30;99.90;;;;;;4986970;28;20179;-78
2021/08/10 12:19:34;;;;;;;4.63;3.60;;;22.20;99.90;;;;;;4975902;28;20180;-78
2021/08/10 12:22:00;;;;;;;4.33;3.40;;;22.20;99.90;;;;;;4990821;28;20192;-78
2021/08/10 12:24:31;;;;;;;5.17;3.70;;;22.20;99.90;;;;;;4983704;28;20177;-79
2021/08/10 12:26:57;;;;;;;4.57;3.30;;;22.40;99.90;;;;;;4973514;28;20272;-82
2021/08/10 12:29:40;;;;;;;4.17;3.27;;;22.70;99.90;;;;;;4977671;28;20653;-85
2021/08/10 12:32:07;;;;;;;6.13;3.50;;;22.90;99.90;;;;;;4976946;28;20743;-81
2021/08/10 12:34:34;;;;;;;4.23;2.50;;;22.80;99.90;;;;;;4984533;28;20359;-81
2021/08/10 12:37:00;;;;;;;5.43;2.73;;;22.90;99.90;;;;;;4980307;28;20678;-81
2021/08/10 12:39:26;;;;;;;5.63;2.40;;;23.00;99.90;;;;;;4977126;28;20215;-80
2021/08/10 12:41:51;;;;;;;3.93;2.70;;;23.00;99.90;;;;;;4979314;28;20204;-80
2021/08/10 12:44:17;;;;;;;3.90;2.30;;;23.10;99.90;;;;;;4981780;28;20195;-82
2021/08/10 12:46:44;;;;;;;4.37;2.67;;;22.90;99.90;;;;;;4979891;28;20254;-79
2021/08/10 12:49:10;;;;;;;4.17;2.87;;;22.70;99.90;;;;;;5002786;28;20172;-79
2021/08/10 12:51:54;;;;;;;4.57;2.63;;;22.50;99.90;;;;;;5009305;28;20199;-79